sensor_id;sensor_type;location;lat;lon;timestamp;P1;durP1;ratioP1;P2;durP2;ratioP2
19969;SDS011;10146;47.754;9.566;2023-10-09T00:00:50;13.30;;;7.15;;
19969;SDS011;10146;47.754;9.566;2023-10-09T00:03:19;12.23;;;7.28;;
19969;SDS011;10146;47.754;9.566;2023-10-09T00:05:48;16.83;;;7.13;;
19969;SDS011;10146;47.754;9.566;2023-10-09T00:08:17;17.33;;;7.57;;
19969;SDS011;10146;47.754;9.566;2023-10-09T00:10:47;14.85;;;7.25;;
19969;SDS011;10146;47.754;9.566;2023-10-09T00:13:22;13.43;;;7.38;;
19969;SDS011;10146;47.754;9.566;2023-10-09T00:16:04;13.50;;;7.50;;
19969;SDS011;10146;47.754;9.566;2023-10-09T00:18:39;15.48;;;7.90;;
19969;SDS011;10146;47.754;9.566;2023-10-09T00:21:18;14.13;;;6.75;;
19969;SDS011;10146;47.754;9.566;2023-10-09T00:23:48;11.77;;;6.32;;
19969;SDS011;10146;47.754;9.566;2023-10-09T00:26:24;11.88;;;7.18;;
19969;SDS011;10146;47.754;9.566;2023-10-09T00:28:50;13.70;;;7.68;;
19969;SDS011;10146;47.754;9.566;2023-10-09T00:31:19;10.90;;;7.25;;
19969;SDS011;10146;47.754;9.566;2023-10-09T00:33:55;13.63;;;7.70;;
19969;SDS011;10146;47.754;9.566;2023-10-09T00:36:32;13.65;;;8.40;;
19969;SDS011;10146;47.754;9.566;2023-10-09T00:39:06;16.75;;;8.70;;
19969;SDS011;10146;47.754;9.566;2023-10-09T00:41:43;15.32;;;8.38;;
19969;SDS011;10146;47.754;9.566;2023-10-09T00:44:09;16.38;;;7.75;;
19969;SDS011;10146;47.754;9.566;2023-10-09T00:46:35;13.13;;;6.97;;
19969;SDS011;10146;47.754;9.566;2023-10-09T00:49:07;15.85;;;7.47;;
19969;SDS011;10146;47.754;9.566;2023-10-09T00:51:35;14.48;;;7.47;;
19969;SDS011;10146;47.754;9.566;2023-10-09T00:54:06;14.85;;;7.65;;
19969;SDS011;10146;47.754;9.566;2023-10-09T00:56:38;14.20;;;7.75;;
19969;SDS011;10146;47.754;9.566;2023-10-09T00:59:10;14.70;;;7.40;;
19969;SDS011;10146;47.754;9.566;2023-10-09T01:01:45;14.57;;;7.32;;
19969;SDS011;10146;47.754;9.566;2023-10-09T01:04:24;12.90;;;7.35;;
19969;SDS011;10146;47.754;9.566;2023-10-09T01:06:53;16.10;;;7.55;;
19969;SDS011;10146;47.754;9.566;2023-10-09T01:09:38;14.02;;;7.32;;
19969;SDS011;10146;47.754;9.566;2023-10-09T01:12:08;15.57;;;7.93;;
19969;SDS011;10146;47.754;9.566;2023-10-09T01:14:41;14.02;;;7.28;;
19969;SDS011;10146;47.754;9.566;2023-10-09T01:17:08;14.38;;;7.53;;
19969;SDS011;10146;47.754;9.566;2023-10-09T01:19:34;15.75;;;7.88;;
19969;SDS011;10146;47.754;9.566;2023-10-09T01:22:00;15.05;;;7.50;;
19969;SDS011;10146;47.754;9.566;2023-10-09T01:24:46;13.77;;;7.65;;
19969;SDS011;10146;47.754;9.566;2023-10-09T01:27:14;11.23;;;7.13;;
19969;SDS011;10146;47.754;9.566;2023-10-09T01:29:40;12.70;;;6.35;;
19969;SDS011;10146;47.754;9.566;2023-10-09T01:32:07;15.77;;;6.78;;
19969;SDS011;10146;47.754;9.566;2023-10-09T01:34:41;13.23;;;7.30;;
19969;SDS011;10146;47.754;9.566;2023-10-09T01:37:08;16.17;;;7.43;;
19969;SDS011;10146;47.754;9.566;2023-10-09T01:39:44;13.52;;;8.15;;
19969;SDS011;10146;47.754;9.566;2023-10-09T01:42:10;15.02;;;7.25;;
19969;SDS011;10146;47.754;9.566;2023-10-09T01:44:48;13.75;;;7.35;;
19969;SDS011;10146;47.754;9.566;2023-10-09T01:47:13;13.27;;;6.57;;
19969;SDS011;10146;47.754;9.566;2023-10-09T01:49:39;13.85;;;7.22;;
19969;SDS011;10146;47.754;9.566;2023-10-09T01:52:08;13.20;;;7.38;;
19969;SDS011;10146;47.754;9.566;2023-10-09T01:54:41;16.38;;;7.13;;
19969;SDS011;10146;47.754;9.566;2023-10-09T01:57:12;15.45;;;6.70;;
19969;SDS011;10146;47.754;9.566;2023-10-09T01:59:47;13.43;;;7.43;;
19969;SDS011;10146;47.754;9.566;2023-10-09T02:02:14;14.63;;;7.50;;
19969;SDS011;10146;47.754;9.566;2023-10-09T02:04:50;11.63;;;6.25;;
19969;SDS011;10146;47.754;9.566;2023-10-09T02:07:19;16.58;;;7.53;;
19969;SDS011;10146;47.754;9.566;2023-10-09T02:09:54;17.90;;;6.72;;
19969;SDS011;10146;47.754;9.566;2023-10-09T02:12:20;10.70;;;7.25;;
19969;SDS011;10146;47.754;9.566;2023-10-09T02:14:47;15.85;;;8.32;;
19969;SDS011;10146;47.754;9.566;2023-10-09T02:17:12;13.38;;;7.30;;
19969;SDS011;10146;47.754;9.566;2023-10-09T02:19:45;12.50;;;6.32;;
19969;SDS011;10146;47.754;9.566;2023-10-09T02:22:14;12.50;;;6.30;;
19969;SDS011;10146;47.754;9.566;2023-10-09T02:24:41;13.73;;;6.93;;
19969;SDS011;10146;47.754;9.566;2023-10-09T02:27:18;15.05;;;6.43;;
19969;SDS011;10146;47.754;9.566;2023-10-09T02:30:03;13.48;;;5.95;;
19969;SDS011;10146;47.754;9.566;2023-10-09T02:32:40;12.02;;;5.88;;
19969;SDS011;10146;47.754;9.566;2023-10-09T02:35:09;13.57;;;6.47;;
19969;SDS011;10146;47.754;9.566;2023-10-09T02:37:45;14.07;;;6.35;;
19969;SDS011;10146;47.754;9.566;2023-10-09T02:40:12;12.88;;;6.05;;
19969;SDS011;10146;47.754;9.566;2023-10-09T02:42:47;14.98;;;6.82;;
19969;SDS011;10146;47.754;9.566;2023-10-09T02:45:14;11.57;;;6.75;;
19969;SDS011;10146;47.754;9.566;2023-10-09T02:47:42;14.65;;;6.57;;
19969;SDS011;10146;47.754;9.566;2023-10-09T02:50:13;13.43;;;6.90;;
19969;SDS011;10146;47.754;9.566;2023-10-09T02:52:46;13.65;;;7.65;;
19969;SDS011;10146;47.754;9.566;2023-10-09T02:55:13;13.98;;;7.00;;
19969;SDS011;10146;47.754;9.566;2023-10-09T02:57:48;10.35;;;6.63;;
19969;SDS011;10146;47.754;9.566;2023-10-09T03:00:17;9.52;;;6.07;;
19969;SDS011;10146;47.754;9.566;2023-10-09T03:02:54;11.95;;;5.97;;
19969;SDS011;10146;47.754;9.566;2023-10-09T03:05:26;11.48;;;5.90;;
19969;SDS011;10146;47.754;9.566;2023-10-09T03:07:54;11.15;;;6.50;;
19969;SDS011;10146;47.754;9.566;2023-10-09T03:10:21;12.18;;;6.25;;
19969;SDS011;10146;47.754;9.566;2023-10-09T03:12:47;12.57;;;6.30;;
19969;SDS011;10146;47.754;9.566;2023-10-09T03:15:18;15.35;;;10.23;;
19969;SDS011;10146;47.754;9.566;2023-10-09T03:17:45;16.63;;;8.68;;
19969;SDS011;10146;47.754;9.566;2023-10-09T03:20:12;14.45;;;7.95;;
19969;SDS011;10146;47.754;9.566;2023-10-09T03:22:42;12.32;;;6.63;;
19969;SDS011;10146;47.754;9.566;2023-10-09T03:25:10;11.82;;;6.65;;
19969;SDS011;10146;47.754;9.566;2023-10-09T03:27:42;11.93;;;6.13;;
19969;SDS011;10146;47.754;9.566;2023-10-09T03:30:10;16.92;;;7.03;;
19969;SDS011;10146;47.754;9.566;2023-10-09T03:32:42;14.10;;;6.93;;
19969;SDS011;10146;47.754;9.566;2023-10-09T03:35:15;11.15;;;6.25;;
19969;SDS011;10146;47.754;9.566;2023-10-09T03:37:55;9.75;;;6.35;;
19969;SDS011;10146;47.754;9.566;2023-10-09T03:40:25;11.23;;;6.07;;
19969;SDS011;10146;47.754;9.566;2023-10-09T03:42:51;11.20;;;5.80;;
19969;SDS011;10146;47.754;9.566;2023-10-09T03:45:17;13.05;;;6.22;;
19969;SDS011;10146;47.754;9.566;2023-10-09T03:47:53;12.05;;;6.72;;
19969;SDS011;10146;47.754;9.566;2023-10-09T03:50:38;10.60;;;5.93;;
19969;SDS011;10146;47.754;9.566;2023-10-09T03:53:06;11.00;;;5.88;;
19969;SDS011;10146;47.754;9.566;2023-10-09T03:55:33;10.48;;;5.50;;
19969;SDS011;10146;47.754;9.566;2023-10-09T03:58:00;14.65;;;5.97;;
19969;SDS011;10146;47.754;9.566;2023-10-09T04:00:28;12.95;;;6.40;;
19969;SDS011;10146;47.754;9.566;2023-10-09T04:02:55;9.45;;;6.13;;
19969;SDS011;10146;47.754;9.566;2023-10-09T04:05:22;12.50;;;6.50;;
19969;SDS011;10146;47.754;9.566;2023-10-09T04:07:48;10.32;;;5.95;;
19969;SDS011;10146;47.754;9.566;2023-10-09T04:10:14;9.30;;;6.03;;
19969;SDS011;10146;47.754;9.566;2023-10-09T04:13:08;12.05;;;6.53;;
19969;SDS011;10146;47.754;9.566;2023-10-09T04:15:36;13.25;;;5.95;;
19969;SDS011;10146;47.754;9.566;2023-10-09T04:18:02;11.27;;;5.70;;
19969;SDS011;10146;47.754;9.566;2023-10-09T04:20:30;11.05;;;5.63;;
19969;SDS011;10146;47.754;9.566;2023-10-09T04:22:59;9.25;;;5.60;;
19969;SDS011;10146;47.754;9.566;2023-10-09T04:25:29;11.57;;;5.95;;
19969;SDS011;10146;47.754;9.566;2023-10-09T04:28:06;16.65;;;6.15;;
19969;SDS011;10146;47.754;9.566;2023-10-09T04:30:43;14.80;;;6.55;;
19969;SDS011;10146;47.754;9.566;2023-10-09T04:33:12;13.10;;;6.05;;
19969;SDS011;10146;47.754;9.566;2023-10-09T04:36:02;12.07;;;6.03;;
19969;SDS011;10146;47.754;9.566;2023-10-09T04:38:47;11.55;;;5.97;;
19969;SDS011;10146;47.754;9.566;2023-10-09T04:41:28;13.93;;;6.75;;
19969;SDS011;10146;47.754;9.566;2023-10-09T04:43:58;14.63;;;6.03;;
19969;SDS011;10146;47.754;9.566;2023-10-09T04:46:43;9.98;;;5.20;;
19969;SDS011;10146;47.754;9.566;2023-10-09T04:49:30;13.07;;;5.85;;
19969;SDS011;10146;47.754;9.566;2023-10-09T04:52:10;12.55;;;5.32;;
19969;SDS011;10146;47.754;9.566;2023-10-09T04:54:44;13.27;;;5.97;;
19969;SDS011;10146;47.754;9.566;2023-10-09T04:57:29;9.50;;;5.45;;
19969;SDS011;10146;47.754;9.566;2023-10-09T04:59:55;13.60;;;6.20;;
19969;SDS011;10146;47.754;9.566;2023-10-09T05:02:24;11.43;;;5.95;;
19969;SDS011;10146;47.754;9.566;2023-10-09T05:04:49;10.60;;;5.53;;
19969;SDS011;10146;47.754;9.566;2023-10-09T05:07:38;12.05;;;5.78;;
19969;SDS011;10146;47.754;9.566;2023-10-09T05:10:19;9.90;;;5.45;;
19969;SDS011;10146;47.754;9.566;2023-10-09T05:12:50;11.18;;;5.88;;
19969;SDS011;10146;47.754;9.566;2023-10-09T05:15:25;11.05;;;6.00;;
19969;SDS011;10146;47.754;9.566;2023-10-09T05:17:55;11.43;;;6.05;;
19969;SDS011;10146;47.754;9.566;2023-10-09T05:20:34;9.73;;;6.32;;
19969;SDS011;10146;47.754;9.566;2023-10-09T05:23:20;9.38;;;5.63;;
19969;SDS011;10146;47.754;9.566;2023-10-09T05:25:50;9.88;;;5.93;;
19969;SDS011;10146;47.754;9.566;2023-10-09T05:28:19;11.98;;;5.70;;
19969;SDS011;10146;47.754;9.566;2023-10-09T05:30:55;10.98;;;5.75;;
19969;SDS011;10146;47.754;9.566;2023-10-09T05:33:34;11.13;;;6.10;;
19969;SDS011;10146;47.754;9.566;2023-10-09T05:36:02;10.25;;;5.32;;
19969;SDS011;10146;47.754;9.566;2023-10-09T05:38:47;11.40;;;5.55;;
19969;SDS011;10146;47.754;9.566;2023-10-09T05:41:23;11.93;;;5.88;;
19969;SDS011;10146;47.754;9.566;2023-10-09T05:44:11;11.27;;;5.63;;
19969;SDS011;10146;47.754;9.566;2023-10-09T05:46:55;11.02;;;4.85;;
19969;SDS011;10146;47.754;9.566;2023-10-09T05:49:39;11.02;;;5.97;;
19969;SDS011;10146;47.754;9.566;2023-10-09T05:52:42;8.98;;;5.00;;
19969;SDS011;10146;47.754;9.566;2023-10-09T05:55:17;10.32;;;5.25;;
19969;SDS011;10146;47.754;9.566;2023-10-09T05:57:49;12.20;;;5.90;;
19969;SDS011;10146;47.754;9.566;2023-10-09T06:00:44;11.20;;;5.82;;
19969;SDS011;10146;47.754;9.566;2023-10-09T06:03:28;9.48;;;4.90;;
19969;SDS011;10146;47.754;9.566;2023-10-09T06:06:11;12.23;;;5.07;;
19969;SDS011;10146;47.754;9.566;2023-10-09T06:08:57;12.38;;;6.00;;
19969;SDS011;10146;47.754;9.566;2023-10-09T06:11:39;11.40;;;7.25;;
19969;SDS011;10146;47.754;9.566;2023-10-09T06:14:17;9.63;;;5.85;;
19969;SDS011;10146;47.754;9.566;2023-10-09T06:16:56;12.43;;;6.13;;
19969;SDS011;10146;47.754;9.566;2023-10-09T06:19:26;13.07;;;6.50;;
19969;SDS011;10146;47.754;9.566;2023-10-09T06:21:53;9.50;;;5.88;;
19969;SDS011;10146;47.754;9.566;2023-10-09T06:24:39;8.98;;;5.65;;
19969;SDS011;10146;47.754;9.566;2023-10-09T06:27:19;12.90;;;6.25;;
19969;SDS011;10146;47.754;9.566;2023-10-09T06:30:11;12.30;;;5.93;;
19969;SDS011;10146;47.754;9.566;2023-10-09T06:32:37;8.63;;;5.57;;
19969;SDS011;10146;47.754;9.566;2023-10-09T06:35:03;10.05;;;5.68;;
19969;SDS011;10146;47.754;9.566;2023-10-09T06:37:50;11.85;;;6.18;;
19969;SDS011;10146;47.754;9.566;2023-10-09T06:40:28;13.25;;;6.43;;
19969;SDS011;10146;47.754;9.566;2023-10-09T06:43:12;15.00;;;6.72;;
19969;SDS011;10146;47.754;9.566;2023-10-09T06:45:46;11.75;;;6.40;;
19969;SDS011;10146;47.754;9.566;2023-10-09T06:48:20;12.20;;;5.75;;
19969;SDS011;10146;47.754;9.566;2023-10-09T06:50:55;11.05;;;5.63;;
19969;SDS011;10146;47.754;9.566;2023-10-09T06:53:53;10.88;;;5.57;;
19969;SDS011;10146;47.754;9.566;2023-10-09T06:58:57;13.43;;;6.38;;
19969;SDS011;10146;47.754;9.566;2023-10-09T07:01:24;11.38;;;5.90;;
19969;SDS011;10146;47.754;9.566;2023-10-09T07:04:13;14.32;;;6.57;;
19969;SDS011;10146;47.754;9.566;2023-10-09T07:07:04;14.63;;;6.63;;
19969;SDS011;10146;47.754;9.566;2023-10-09T07:09:38;13.93;;;6.40;;
19969;SDS011;10146;47.754;9.566;2023-10-09T07:12:29;13.68;;;6.35;;
19969;SDS011;10146;47.754;9.566;2023-10-09T07:14:58;17.75;;;6.25;;
19969;SDS011;10146;47.754;9.566;2023-10-09T07:17:30;14.30;;;5.97;;
19969;SDS011;10146;47.754;9.566;2023-10-09T07:19:59;15.70;;;7.35;;
19969;SDS011;10146;47.754;9.566;2023-10-09T07:22:35;18.50;;;8.57;;
19969;SDS011;10146;47.754;9.566;2023-10-09T07:25:04;19.48;;;8.35;;
19969;SDS011;10146;47.754;9.566;2023-10-09T07:27:48;18.38;;;9.35;;
19969;SDS011;10146;47.754;9.566;2023-10-09T07:30:20;18.73;;;10.63;;
19969;SDS011;10146;47.754;9.566;2023-10-09T07:33:07;18.25;;;9.95;;
19969;SDS011;10146;47.754;9.566;2023-10-09T07:35:33;23.88;;;10.10;;
19969;SDS011;10146;47.754;9.566;2023-10-09T07:38:21;19.52;;;9.95;;
19969;SDS011;10146;47.754;9.566;2023-10-09T07:40:53;22.73;;;11.35;;
19969;SDS011;10146;47.754;9.566;2023-10-09T07:43:38;18.40;;;10.88;;
19969;SDS011;10146;47.754;9.566;2023-10-09T07:46:04;19.38;;;12.95;;
19969;SDS011;10146;47.754;9.566;2023-10-09T07:48:57;21.02;;;12.15;;
19969;SDS011;10146;47.754;9.566;2023-10-09T07:51:25;27.55;;;12.68;;
19969;SDS011;10146;47.754;9.566;2023-10-09T07:54:00;22.13;;;12.30;;
19969;SDS011;10146;47.754;9.566;2023-10-09T07:56:32;20.20;;;13.20;;
19969;SDS011;10146;47.754;9.566;2023-10-09T07:59:25;22.38;;;12.65;;
19969;SDS011;10146;47.754;9.566;2023-10-09T08:01:50;25.13;;;13.57;;
19969;SDS011;10146;47.754;9.566;2023-10-09T08:04:27;18.15;;;12.05;;
19969;SDS011;10146;47.754;9.566;2023-10-09T08:07:08;22.95;;;12.30;;
19969;SDS011;10146;47.754;9.566;2023-10-09T08:09:57;20.40;;;11.20;;
19969;SDS011;10146;47.754;9.566;2023-10-09T08:12:42;17.13;;;11.05;;
19969;SDS011;10146;47.754;9.566;2023-10-09T08:15:14;22.95;;;11.00;;
19969;SDS011;10146;47.754;9.566;2023-10-09T08:17:47;17.60;;;10.35;;
19969;SDS011;10146;47.754;9.566;2023-10-09T08:20:21;21.35;;;11.20;;
19969;SDS011;10146;47.754;9.566;2023-10-09T08:22:51;21.00;;;11.35;;
19969;SDS011;10146;47.754;9.566;2023-10-09T08:25:23;22.35;;;10.98;;
19969;SDS011;10146;47.754;9.566;2023-10-09T08:28:03;18.02;;;9.93;;
19969;SDS011;10146;47.754;9.566;2023-10-09T08:30:49;21.35;;;9.65;;
19969;SDS011;10146;47.754;9.566;2023-10-09T08:33:27;22.45;;;10.10;;
19969;SDS011;10146;47.754;9.566;2023-10-09T08:36:06;22.20;;;9.45;;
19969;SDS011;10146;47.754;9.566;2023-10-09T08:38:33;19.35;;;8.98;;
19969;SDS011;10146;47.754;9.566;2023-10-09T08:41:11;20.50;;;8.20;;
19969;SDS011;10146;47.754;9.566;2023-10-09T08:43:48;21.60;;;9.30;;
19969;SDS011;10146;47.754;9.566;2023-10-09T08:46:17;16.10;;;9.02;;
19969;SDS011;10146;47.754;9.566;2023-10-09T08:48:57;17.10;;;8.90;;
19969;SDS011;10146;47.754;9.566;2023-10-09T08:51:25;19.40;;;9.35;;
19969;SDS011;10146;47.754;9.566;2023-10-09T08:53:52;19.10;;;8.90;;
19969;SDS011;10146;47.754;9.566;2023-10-09T08:56:18;17.60;;;7.80;;
19969;SDS011;10146;47.754;9.566;2023-10-09T08:59:05;18.23;;;7.47;;
19969;SDS011;10146;47.754;9.566;2023-10-09T09:01:31;19.95;;;8.18;;
19969;SDS011;10146;47.754;9.566;2023-10-09T09:03:57;15.55;;;6.75;;
19969;SDS011;10146;47.754;9.566;2023-10-09T09:06:25;18.77;;;7.05;;
19969;SDS011;10146;47.754;9.566;2023-10-09T09:08:51;16.50;;;6.55;;
19969;SDS011;10146;47.754;9.566;2023-10-09T09:11:24;13.73;;;6.78;;
19969;SDS011;10146;47.754;9.566;2023-10-09T09:14:02;17.95;;;6.15;;
19969;SDS011;10146;47.754;9.566;2023-10-09T09:16:32;16.25;;;6.57;;
19969;SDS011;10146;47.754;9.566;2023-10-09T09:19:03;16.48;;;6.85;;
19969;SDS011;10146;47.754;9.566;2023-10-09T09:21:39;14.18;;;6.57;;
19969;SDS011;10146;47.754;9.566;2023-10-09T09:24:09;23.70;;;7.82;;
19969;SDS011;10146;47.754;9.566;2023-10-09T09:26:48;14.23;;;6.55;;
19969;SDS011;10146;47.754;9.566;2023-10-09T09:29:24;16.30;;;6.88;;
19969;SDS011;10146;47.754;9.566;2023-10-09T09:32:02;16.02;;;5.88;;
19969;SDS011;10146;47.754;9.566;2023-10-09T09:34:44;17.55;;;6.57;;
19969;SDS011;10146;47.754;9.566;2023-10-09T09:37:35;19.20;;;7.10;;
19969;SDS011;10146;47.754;9.566;2023-10-09T09:40:03;17.52;;;7.60;;
19969;SDS011;10146;47.754;9.566;2023-10-09T09:42:52;16.52;;;6.60;;
19969;SDS011;10146;47.754;9.566;2023-10-09T09:45:36;16.05;;;6.05;;
19969;SDS011;10146;47.754;9.566;2023-10-09T09:48:03;15.27;;;6.65;;
19969;SDS011;10146;47.754;9.566;2023-10-09T09:50:35;15.70;;;5.35;;
19969;SDS011;10146;47.754;9.566;2023-10-09T09:53:08;15.68;;;6.50;;
19969;SDS011;10146;47.754;9.566;2023-10-09T09:55:50;19.67;;;6.72;;
19969;SDS011;10146;47.754;9.566;2023-10-09T09:58:23;15.52;;;5.70;;
19969;SDS011;10146;47.754;9.566;2023-10-09T10:00:59;14.10;;;6.20;;
19969;SDS011;10146;47.754;9.566;2023-10-09T10:03:41;14.30;;;5.80;;
19969;SDS011;10146;47.754;9.566;2023-10-09T10:06:11;16.58;;;6.25;;
19969;SDS011;10146;47.754;9.566;2023-10-09T10:08:37;21.05;;;5.97;;
19969;SDS011;10146;47.754;9.566;2023-10-09T10:11:07;17.90;;;6.18;;
19969;SDS011;10146;47.754;9.566;2023-10-09T10:13:54;16.63;;;5.82;;
19969;SDS011;10146;47.754;9.566;2023-10-09T10:16:24;18.40;;;5.85;;
19969;SDS011;10146;47.754;9.566;2023-10-09T10:19:00;14.88;;;5.72;;
19969;SDS011;10146;47.754;9.566;2023-10-09T10:21:32;17.92;;;5.80;;
19969;SDS011;10146;47.754;9.566;2023-10-09T10:35:20;16.92;;;5.88;;
19969;SDS011;10146;47.754;9.566;2023-10-09T10:41:18;15.15;;;5.10;;
19969;SDS011;10146;47.754;9.566;2023-10-09T10:43:47;15.13;;;5.82;;
19969;SDS011;10146;47.754;9.566;2023-10-09T10:46:16;17.60;;;5.47;;
19969;SDS011;10146;47.754;9.566;2023-10-09T10:48:48;19.38;;;6.28;;
19969;SDS011;10146;47.754;9.566;2023-10-09T10:51:23;19.80;;;6.07;;
19969;SDS011;10146;47.754;9.566;2023-10-09T10:53:52;17.63;;;5.57;;
19969;SDS011;10146;47.754;9.566;2023-10-09T10:56:23;15.85;;;5.55;;
19969;SDS011;10146;47.754;9.566;2023-10-09T10:59:00;16.52;;;5.65;;
19969;SDS011;10146;47.754;9.566;2023-10-09T11:01:32;21.48;;;5.88;;
19969;SDS011;10146;47.754;9.566;2023-10-09T11:04:17;17.13;;;5.50;;
19969;SDS011;10146;47.754;9.566;2023-10-09T11:06:55;18.58;;;5.75;;
19969;SDS011;10146;47.754;9.566;2023-10-09T11:09:26;14.73;;;4.97;;
19969;SDS011;10146;47.754;9.566;2023-10-09T11:12:06;20.35;;;4.55;;
19969;SDS011;10146;47.754;9.566;2023-10-09T11:14:46;18.52;;;5.65;;
19969;SDS011;10146;47.754;9.566;2023-10-09T11:17:31;17.55;;;5.95;;
19969;SDS011;10146;47.754;9.566;2023-10-09T11:19:58;17.60;;;5.45;;
19969;SDS011;10146;47.754;9.566;2023-10-09T11:22:35;16.20;;;5.22;;
19969;SDS011;10146;47.754;9.566;2023-10-09T11:25:15;16.13;;;5.18;;
19969;SDS011;10146;47.754;9.566;2023-10-09T11:27:43;13.63;;;5.05;;
19969;SDS011;10146;47.754;9.566;2023-10-09T11:30:15;16.45;;;5.18;;
19969;SDS011;10146;47.754;9.566;2023-10-09T11:33:03;19.33;;;4.93;;
19969;SDS011;10146;47.754;9.566;2023-10-09T11:35:39;17.48;;;5.47;;
19969;SDS011;10146;47.754;9.566;2023-10-09T11:38:08;12.30;;;4.20;;
19969;SDS011;10146;47.754;9.566;2023-10-09T11:40:46;18.63;;;5.60;;
19969;SDS011;10146;47.754;9.566;2023-10-09T11:43:18;13.82;;;5.15;;
19969;SDS011;10146;47.754;9.566;2023-10-09T11:46:10;13.40;;;5.05;;
19969;SDS011;10146;47.754;9.566;2023-10-09T11:49:08;13.25;;;4.38;;
19969;SDS011;10146;47.754;9.566;2023-10-09T11:52:04;12.77;;;4.75;;
19969;SDS011;10146;47.754;9.566;2023-10-09T11:54:33;16.85;;;4.82;;
19969;SDS011;10146;47.754;9.566;2023-10-09T11:57:00;15.43;;;4.75;;
19969;SDS011;10146;47.754;9.566;2023-10-09T11:59:27;14.55;;;4.68;;
19969;SDS011;10146;47.754;9.566;2023-10-09T12:01:59;13.45;;;4.70;;
19969;SDS011;10146;47.754;9.566;2023-10-09T12:04:26;19.67;;;5.20;;
19969;SDS011;10146;47.754;9.566;2023-10-09T12:06:55;12.05;;;4.10;;
19969;SDS011;10146;47.754;9.566;2023-10-09T12:09:34;18.88;;;5.50;;
19969;SDS011;10146;47.754;9.566;2023-10-09T12:12:03;16.15;;;5.20;;
19969;SDS011;10146;47.754;9.566;2023-10-09T12:14:31;16.70;;;5.03;;
19969;SDS011;10146;47.754;9.566;2023-10-09T12:17:03;18.63;;;4.90;;
19969;SDS011;10146;47.754;9.566;2023-10-09T12:19:33;14.02;;;4.97;;
19969;SDS011;10146;47.754;9.566;2023-10-09T12:22:04;13.75;;;4.88;;
19969;SDS011;10146;47.754;9.566;2023-10-09T12:24:32;16.98;;;4.82;;
19969;SDS011;10146;47.754;9.566;2023-10-09T12:26:59;13.38;;;4.40;;
19969;SDS011;10146;47.754;9.566;2023-10-09T12:29:25;16.75;;;5.40;;
19969;SDS011;10146;47.754;9.566;2023-10-09T12:31:55;15.57;;;4.93;;
19969;SDS011;10146;47.754;9.566;2023-10-09T12:34:25;19.02;;;4.93;;
19969;SDS011;10146;47.754;9.566;2023-10-09T12:36:56;14.52;;;4.80;;
19969;SDS011;10146;47.754;9.566;2023-10-09T12:39:26;14.07;;;5.50;;
19969;SDS011;10146;47.754;9.566;2023-10-09T12:41:58;16.35;;;5.28;;
19969;SDS011;10146;47.754;9.566;2023-10-09T12:44:31;18.50;;;5.18;;
19969;SDS011;10146;47.754;9.566;2023-10-09T12:47:04;16.50;;;5.07;;
19969;SDS011;10146;47.754;9.566;2023-10-09T12:49:31;17.98;;;4.80;;
19969;SDS011;10146;47.754;9.566;2023-10-09T12:51:56;15.05;;;5.28;;
19969;SDS011;10146;47.754;9.566;2023-10-09T12:54:25;13.73;;;4.88;;
19969;SDS011;10146;47.754;9.566;2023-10-09T12:56:56;15.32;;;5.60;;
19969;SDS011;10146;47.754;9.566;2023-10-09T12:59:24;12.95;;;5.53;;
19969;SDS011;10146;47.754;9.566;2023-10-09T13:01:50;18.65;;;5.90;;
19969;SDS011;10146;47.754;9.566;2023-10-09T13:04:22;23.15;;;5.88;;
19969;SDS011;10146;47.754;9.566;2023-10-09T13:06:48;13.75;;;4.47;;
19969;SDS011;10146;47.754;9.566;2023-10-09T13:09:19;15.82;;;5.45;;
19969;SDS011;10146;47.754;9.566;2023-10-09T13:11:59;17.58;;;4.50;;
19969;SDS011;10146;47.754;9.566;2023-10-09T13:14:28;21.52;;;5.40;;
19969;SDS011;10146;47.754;9.566;2023-10-09T13:16:58;15.20;;;4.60;;
19969;SDS011;10146;47.754;9.566;2023-10-09T13:19:24;18.00;;;5.70;;
19969;SDS011;10146;47.754;9.566;2023-10-09T13:21:50;15.82;;;5.20;;
19969;SDS011;10146;47.754;9.566;2023-10-09T13:24:16;16.77;;;4.78;;
19969;SDS011;10146;47.754;9.566;2023-10-09T13:26:42;19.70;;;6.45;;
19969;SDS011;10146;47.754;9.566;2023-10-09T13:29:11;16.38;;;5.72;;
19969;SDS011;10146;47.754;9.566;2023-10-09T13:31:37;20.65;;;5.47;;
19969;SDS011;10146;47.754;9.566;2023-10-09T13:34:11;21.27;;;5.60;;
19969;SDS011;10146;47.754;9.566;2023-10-09T13:36:40;16.88;;;5.30;;
19969;SDS011;10146;47.754;9.566;2023-10-09T13:39:14;18.17;;;5.85;;
19969;SDS011;10146;47.754;9.566;2023-10-09T13:41:56;29.73;;;6.80;;
19969;SDS011;10146;47.754;9.566;2023-10-09T13:44:23;35.03;;;6.70;;
19969;SDS011;10146;47.754;9.566;2023-10-09T13:46:59;38.33;;;6.95;;
19969;SDS011;10146;47.754;9.566;2023-10-09T13:49:30;30.73;;;6.97;;
19969;SDS011;10146;47.754;9.566;2023-10-09T13:51:56;22.05;;;5.85;;
19969;SDS011;10146;47.754;9.566;2023-10-09T13:54:26;19.80;;;6.03;;
19969;SDS011;10146;47.754;9.566;2023-10-09T13:56:59;21.70;;;5.72;;
19969;SDS011;10146;47.754;9.566;2023-10-09T13:59:25;16.50;;;6.05;;
19969;SDS011;10146;47.754;9.566;2023-10-09T14:01:53;14.90;;;5.45;;
19969;SDS011;10146;47.754;9.566;2023-10-09T14:04:20;16.23;;;5.22;;
19969;SDS011;10146;47.754;9.566;2023-10-09T14:06:48;12.00;;;5.30;;
19969;SDS011;10146;47.754;9.566;2023-10-09T14:09:14;16.40;;;5.40;;
19969;SDS011;10146;47.754;9.566;2023-10-09T14:12:02;12.93;;;5.22;;
19969;SDS011;10146;47.754;9.566;2023-10-09T14:14:38;13.57;;;5.45;;
19969;SDS011;10146;47.754;9.566;2023-10-09T14:17:22;14.27;;;5.50;;
19969;SDS011;10146;47.754;9.566;2023-10-09T14:19:53;14.10;;;6.00;;
19969;SDS011;10146;47.754;9.566;2023-10-09T14:22:20;20.90;;;6.03;;
19969;SDS011;10146;47.754;9.566;2023-10-09T14:24:51;16.63;;;5.80;;
19969;SDS011;10146;47.754;9.566;2023-10-09T14:27:21;15.55;;;5.57;;
19969;SDS011;10146;47.754;9.566;2023-10-09T14:29:51;15.90;;;5.10;;
19969;SDS011;10146;47.754;9.566;2023-10-09T14:32:21;18.30;;;5.88;;
19969;SDS011;10146;47.754;9.566;2023-10-09T14:34:53;18.60;;;5.63;;
19969;SDS011;10146;47.754;9.566;2023-10-09T14:37:37;20.08;;;5.97;;
19969;SDS011;10146;47.754;9.566;2023-10-09T14:40:04;14.95;;;5.63;;
19969;SDS011;10146;47.754;9.566;2023-10-09T14:42:37;18.58;;;5.70;;
19969;SDS011;10146;47.754;9.566;2023-10-09T14:45:09;15.60;;;5.20;;
19969;SDS011;10146;47.754;9.566;2023-10-09T14:47:41;12.30;;;5.07;;
19969;SDS011;10146;47.754;9.566;2023-10-09T14:50:07;15.95;;;5.75;;
19969;SDS011;10146;47.754;9.566;2023-10-09T14:52:34;20.05;;;6.30;;
19969;SDS011;10146;47.754;9.566;2023-10-09T14:55:04;17.60;;;5.47;;
19969;SDS011;10146;47.754;9.566;2023-10-09T14:57:30;18.20;;;6.00;;
19969;SDS011;10146;47.754;9.566;2023-10-09T14:59:59;15.13;;;6.82;;
19969;SDS011;10146;47.754;9.566;2023-10-09T15:02:26;14.35;;;6.13;;
19969;SDS011;10146;47.754;9.566;2023-10-09T15:04:51;17.00;;;6.63;;
19969;SDS011;10146;47.754;9.566;2023-10-09T15:07:18;15.88;;;5.43;;
19969;SDS011;10146;47.754;9.566;2023-10-09T15:09:44;15.93;;;5.45;;
19969;SDS011;10146;47.754;9.566;2023-10-09T15:12:09;15.65;;;5.43;;
19969;SDS011;10146;47.754;9.566;2023-10-09T15:14:36;14.82;;;5.10;;
19969;SDS011;10146;47.754;9.566;2023-10-09T15:17:04;16.52;;;5.30;;
19969;SDS011;10146;47.754;9.566;2023-10-09T15:19:31;19.55;;;5.72;;
19969;SDS011;10146;47.754;9.566;2023-10-09T15:21:57;14.75;;;5.50;;
19969;SDS011;10146;47.754;9.566;2023-10-09T15:24:24;18.95;;;5.60;;
19969;SDS011;10146;47.754;9.566;2023-10-09T15:26:52;12.68;;;5.32;;